sensor_id;sensor_type;location;lat;lon;timestamp;P1;durP1;ratioP1;P2;durP2;ratioP2
36009;SDS011;22076;52.182;5.404;2024-01-30T00:00:23;32.25;;;17.27;;
36009;SDS011;22076;52.182;5.404;2024-01-30T00:02:49;33.30;;;18.38;;
36009;SDS011;22076;52.182;5.404;2024-01-30T00:05:16;34.42;;;18.27;;
36009;SDS011;22076;52.182;5.404;2024-01-30T00:07:43;30.42;;;17.05;;
36009;SDS011;22076;52.182;5.404;2024-01-30T00:10:11;32.70;;;17.58;;
36009;SDS011;22076;52.182;5.404;2024-01-30T00:12:37;31.92;;;17.20;;
36009;SDS011;22076;52.182;5.404;2024-01-30T00:15:04;26.25;;;16.90;;
36009;SDS011;22076;52.182;5.404;2024-01-30T00:17:33;31.45;;;17.42;;
36009;SDS011;22076;52.182;5.404;2024-01-30T00:20:00;35.65;;;18.50;;
36009;SDS011;22076;52.182;5.404;2024-01-30T00:22:30;32.10;;;18.00;;
36009;SDS011;22076;52.182;5.404;2024-01-30T00:24:56;36.20;;;19.20;;
36009;SDS011;22076;52.182;5.404;2024-01-30T00:27:24;32.60;;;19.05;;
36009;SDS011;22076;52.182;5.404;2024-01-30T00:29:52;32.03;;;19.00;;
36009;SDS011;22076;52.182;5.404;2024-01-30T00:32:19;33.55;;;18.83;;
36009;SDS011;22076;52.182;5.404;2024-01-30T00:34:45;35.92;;;19.60;;
36009;SDS011;22076;52.182;5.404;2024-01-30T00:37:12;30.80;;;19.17;;
36009;SDS011;22076;52.182;5.404;2024-01-30T00:39:38;32.55;;;20.42;;
36009;SDS011;22076;52.182;5.404;2024-01-30T00:42:05;34.28;;;19.95;;
36009;SDS011;22076;52.182;5.404;2024-01-30T00:44:34;34.72;;;20.23;;
36009;SDS011;22076;52.182;5.404;2024-01-30T00:47:02;33.97;;;18.50;;
36009;SDS011;22076;52.182;5.404;2024-01-30T00:49:29;30.92;;;17.38;;
36009;SDS011;22076;52.182;5.404;2024-01-30T00:51:55;32.55;;;19.45;;
36009;SDS011;22076;52.182;5.404;2024-01-30T00:54:22;32.72;;;18.52;;
36009;SDS011;22076;52.182;5.404;2024-01-30T00:56:48;32.30;;;17.90;;
36009;SDS011;22076;52.182;5.404;2024-01-30T00:59:15;29.92;;;17.27;;
36009;SDS011;22076;52.182;5.404;2024-01-30T01:01:43;29.42;;;18.05;;
36009;SDS011;22076;52.182;5.404;2024-01-30T01:04:09;35.20;;;19.92;;
36009;SDS011;22076;52.182;5.404;2024-01-30T01:06:36;36.25;;;20.15;;
36009;SDS011;22076;52.182;5.404;2024-01-30T01:09:02;32.17;;;19.15;;
36009;SDS011;22076;52.182;5.404;2024-01-30T01:11:29;34.20;;;20.58;;
36009;SDS011;22076;52.182;5.404;2024-01-30T01:13:56;38.97;;;20.42;;
36009;SDS011;22076;52.182;5.404;2024-01-30T01:16:23;34.88;;;20.25;;
36009;SDS011;22076;52.182;5.404;2024-01-30T01:18:50;32.33;;;19.73;;
36009;SDS011;22076;52.182;5.404;2024-01-30T01:21:17;41.70;;;21.00;;
36009;SDS011;22076;52.182;5.404;2024-01-30T01:23:43;32.38;;;19.52;;
36009;SDS011;22076;52.182;5.404;2024-01-30T01:26:10;35.67;;;18.75;;
36009;SDS011;22076;52.182;5.404;2024-01-30T01:28:37;36.17;;;19.15;;
36009;SDS011;22076;52.182;5.404;2024-01-30T01:31:05;37.22;;;20.25;;
36009;SDS011;22076;52.182;5.404;2024-01-30T01:33:31;35.55;;;20.98;;
36009;SDS011;22076;52.182;5.404;2024-01-30T01:36:00;26.08;;;14.50;;
36009;SDS011;22076;52.182;5.404;2024-01-30T01:38:27;34.33;;;19.35;;
36009;SDS011;22076;52.182;5.404;2024-01-30T01:40:54;34.08;;;19.48;;
36009;SDS011;22076;52.182;5.404;2024-01-30T01:43:20;35.58;;;18.88;;
36009;SDS011;22076;52.182;5.404;2024-01-30T01:45:47;33.30;;;19.35;;
36009;SDS011;22076;52.182;5.404;2024-01-30T01:48:14;35.50;;;20.35;;
36009;SDS011;22076;52.182;5.404;2024-01-30T01:50:40;32.85;;;19.45;;
36009;SDS011;22076;52.182;5.404;2024-01-30T01:53:10;31.45;;;17.30;;
36009;SDS011;22076;52.182;5.404;2024-01-30T01:55:36;29.15;;;17.13;;
36009;SDS011;22076;52.182;5.404;2024-01-30T01:58:03;29.00;;;17.55;;
36009;SDS011;22076;52.182;5.404;2024-01-30T02:00:30;33.55;;;17.80;;
36009;SDS011;22076;52.182;5.404;2024-01-30T02:02:57;30.17;;;18.25;;
36009;SDS011;22076;52.182;5.404;2024-01-30T02:05:26;34.03;;;19.33;;
36009;SDS011;22076;52.182;5.404;2024-01-30T02:07:52;31.90;;;18.02;;
36009;SDS011;22076;52.182;5.404;2024-01-30T02:10:21;34.08;;;18.40;;
36009;SDS011;22076;52.182;5.404;2024-01-30T02:12:48;32.40;;;18.77;;
36009;SDS011;22076;52.182;5.404;2024-01-30T02:15:14;28.90;;;16.13;;
36009;SDS011;22076;52.182;5.404;2024-01-30T02:17:41;33.72;;;18.75;;
36009;SDS011;22076;52.182;5.404;2024-01-30T02:20:08;26.77;;;15.43;;
36009;SDS011;22076;52.182;5.404;2024-01-30T02:22:37;31.38;;;18.17;;
36009;SDS011;22076;52.182;5.404;2024-01-30T02:25:04;26.80;;;16.67;;
36009;SDS011;22076;52.182;5.404;2024-01-30T02:27:31;33.58;;;18.35;;
36009;SDS011;22076;52.182;5.404;2024-01-30T02:29:58;33.55;;;17.67;;
36009;SDS011;22076;52.182;5.404;2024-01-30T02:32:24;35.85;;;17.98;;
36009;SDS011;22076;52.182;5.404;2024-01-30T02:34:50;30.95;;;18.35;;
36009;SDS011;22076;52.182;5.404;2024-01-30T02:37:17;29.70;;;17.65;;
36009;SDS011;22076;52.182;5.404;2024-01-30T02:39:45;29.75;;;16.70;;
36009;SDS011;22076;52.182;5.404;2024-01-30T02:42:11;30.73;;;16.50;;
36009;SDS011;22076;52.182;5.404;2024-01-30T02:44:38;33.33;;;18.52;;
36009;SDS011;22076;52.182;5.404;2024-01-30T02:47:05;31.02;;;17.20;;
36009;SDS011;22076;52.182;5.404;2024-01-30T02:49:31;30.58;;;15.73;;
36009;SDS011;22076;52.182;5.404;2024-01-30T02:51:58;33.45;;;17.33;;
36009;SDS011;22076;52.182;5.404;2024-01-30T02:54:24;34.33;;;18.92;;
36009;SDS011;22076;52.182;5.404;2024-01-30T02:56:52;31.20;;;16.60;;
36009;SDS011;22076;52.182;5.404;2024-01-30T02:59:18;29.25;;;17.48;;
36009;SDS011;22076;52.182;5.404;2024-01-30T03:01:45;30.70;;;17.48;;
36009;SDS011;22076;52.182;5.404;2024-01-30T03:04:13;35.13;;;19.08;;
36009;SDS011;22076;52.182;5.404;2024-01-30T03:06:44;36.08;;;17.17;;
36009;SDS011;22076;52.182;5.404;2024-01-30T03:09:11;37.13;;;19.48;;
36009;SDS011;22076;52.182;5.404;2024-01-30T03:11:38;34.05;;;19.92;;
36009;SDS011;22076;52.182;5.404;2024-01-30T03:14:06;34.92;;;20.25;;
36009;SDS011;22076;52.182;5.404;2024-01-30T03:16:33;40.40;;;20.33;;
36009;SDS011;22076;52.182;5.404;2024-01-30T03:18:59;46.00;;;22.98;;
36009;SDS011;22076;52.182;5.404;2024-01-30T03:21:27;32.88;;;18.00;;
36009;SDS011;22076;52.182;5.404;2024-01-30T03:23:53;36.72;;;20.55;;
36009;SDS011;22076;52.182;5.404;2024-01-30T03:26:20;32.70;;;18.05;;
36009;SDS011;22076;52.182;5.404;2024-01-30T03:28:46;45.05;;;23.23;;
36009;SDS011;22076;52.182;5.404;2024-01-30T03:31:15;43.08;;;21.58;;
36009;SDS011;22076;52.182;5.404;2024-01-30T03:33:42;37.55;;;21.10;;
36009;SDS011;22076;52.182;5.404;2024-01-30T03:36:08;41.35;;;22.10;;
36009;SDS011;22076;52.182;5.404;2024-01-30T03:38:35;45.88;;;23.77;;
36009;SDS011;22076;52.182;5.404;2024-01-30T03:41:02;42.05;;;21.48;;
36009;SDS011;22076;52.182;5.404;2024-01-30T03:43:29;38.38;;;18.90;;
36009;SDS011;22076;52.182;5.404;2024-01-30T03:45:55;36.72;;;19.38;;
36009;SDS011;22076;52.182;5.404;2024-01-30T03:48:23;34.38;;;19.42;;
36009;SDS011;22076;52.182;5.404;2024-01-30T03:50:50;29.52;;;17.45;;
36009;SDS011;22076;52.182;5.404;2024-01-30T03:53:17;39.95;;;20.15;;
36009;SDS011;22076;52.182;5.404;2024-01-30T03:55:44;40.47;;;20.08;;
36009;SDS011;22076;52.182;5.404;2024-01-30T03:58:10;37.20;;;19.35;;
36009;SDS011;22076;52.182;5.404;2024-01-30T04:00:37;31.88;;;17.80;;
36009;SDS011;22076;52.182;5.404;2024-01-30T04:03:03;35.75;;;19.48;;
36009;SDS011;22076;52.182;5.404;2024-01-30T04:05:31;35.38;;;18.15;;
36009;SDS011;22076;52.182;5.404;2024-01-30T04:07:58;33.30;;;18.83;;
36009;SDS011;22076;52.182;5.404;2024-01-30T04:10:25;32.55;;;17.48;;
36009;SDS011;22076;52.182;5.404;2024-01-30T04:12:52;35.25;;;18.75;;
36009;SDS011;22076;52.182;5.404;2024-01-30T04:15:19;28.70;;;16.25;;
36009;SDS011;22076;52.182;5.404;2024-01-30T04:17:45;29.58;;;17.48;;
36009;SDS011;22076;52.182;5.404;2024-01-30T04:20:13;35.65;;;17.25;;
36009;SDS011;22076;52.182;5.404;2024-01-30T04:22:42;33.50;;;17.27;;
36009;SDS011;22076;52.182;5.404;2024-01-30T04:25:09;29.75;;;14.85;;
36009;SDS011;22076;52.182;5.404;2024-01-30T04:27:35;31.98;;;16.58;;
36009;SDS011;22076;52.182;5.404;2024-01-30T04:30:02;30.30;;;15.90;;
36009;SDS011;22076;52.182;5.404;2024-01-30T04:32:29;32.88;;;16.63;;
36009;SDS011;22076;52.182;5.404;2024-01-30T04:34:56;26.27;;;15.02;;
36009;SDS011;22076;52.182;5.404;2024-01-30T04:37:23;27.58;;;15.95;;
36009;SDS011;22076;52.182;5.404;2024-01-30T04:39:51;29.10;;;15.98;;
36009;SDS011;22076;52.182;5.404;2024-01-30T04:42:17;24.95;;;15.10;;
36009;SDS011;22076;52.182;5.404;2024-01-30T04:44:44;26.02;;;14.40;;
36009;SDS011;22076;52.182;5.404;2024-01-30T04:47:10;25.10;;;14.82;;
36009;SDS011;22076;52.182;5.404;2024-01-30T04:49:37;29.42;;;16.27;;
36009;SDS011;22076;52.182;5.404;2024-01-30T04:52:04;25.65;;;13.98;;
36009;SDS011;22076;52.182;5.404;2024-01-30T04:54:31;28.27;;;14.88;;
36009;SDS011;22076;52.182;5.404;2024-01-30T04:56:59;28.85;;;15.07;;
36009;SDS011;22076;52.182;5.404;2024-01-30T04:59:25;25.67;;;15.02;;
36009;SDS011;22076;52.182;5.404;2024-01-30T05:01:52;29.25;;;16.05;;
36009;SDS011;22076;52.182;5.404;2024-01-30T05:04:19;29.48;;;15.43;;
36009;SDS011;22076;52.182;5.404;2024-01-30T05:06:46;24.27;;;14.02;;
36009;SDS011;22076;52.182;5.404;2024-01-30T05:09:12;25.98;;;13.98;;
36009;SDS011;22076;52.182;5.404;2024-01-30T05:11:39;32.20;;;15.85;;
36009;SDS011;22076;52.182;5.404;2024-01-30T05:14:07;29.60;;;15.20;;
36009;SDS011;22076;52.182;5.404;2024-01-30T05:16:34;26.08;;;13.52;;
36009;SDS011;22076;52.182;5.404;2024-01-30T05:19:01;26.00;;;15.38;;
36009;SDS011;22076;52.182;5.404;2024-01-30T05:21:27;30.98;;;16.75;;
36009;SDS011;22076;52.182;5.404;2024-01-30T05:23:54;27.30;;;14.30;;
36009;SDS011;22076;52.182;5.404;2024-01-30T05:26:20;29.77;;;15.32;;
36009;SDS011;22076;52.182;5.404;2024-01-30T05:28:47;26.42;;;15.23;;
36009;SDS011;22076;52.182;5.404;2024-01-30T05:31:15;27.98;;;15.18;;
36009;SDS011;22076;52.182;5.404;2024-01-30T05:33:42;26.20;;;14.30;;
36009;SDS011;22076;52.182;5.404;2024-01-30T05:36:11;28.20;;;16.25;;
36009;SDS011;22076;52.182;5.404;2024-01-30T05:38:37;30.52;;;16.65;;
36009;SDS011;22076;52.182;5.404;2024-01-30T05:41:04;34.10;;;16.15;;
36009;SDS011;22076;52.182;5.404;2024-01-30T05:43:31;28.92;;;16.05;;
36009;SDS011;22076;52.182;5.404;2024-01-30T05:45:57;34.42;;;16.65;;
36009;SDS011;22076;52.182;5.404;2024-01-30T05:48:25;26.98;;;15.70;;
36009;SDS011;22076;52.182;5.404;2024-01-30T05:50:52;27.95;;;15.55;;
36009;SDS011;22076;52.182;5.404;2024-01-30T05:53:18;29.77;;;16.80;;
36009;SDS011;22076;52.182;5.404;2024-01-30T05:55:45;30.55;;;16.92;;
36009;SDS011;22076;52.182;5.404;2024-01-30T05:58:11;30.77;;;17.33;;
36009;SDS011;22076;52.182;5.404;2024-01-30T06:00:38;26.00;;;15.05;;
36009;SDS011;22076;52.182;5.404;2024-01-30T06:03:04;32.97;;;16.23;;
36009;SDS011;22076;52.182;5.404;2024-01-30T06:05:32;30.95;;;17.00;;
36009;SDS011;22076;52.182;5.404;2024-01-30T06:07:59;30.70;;;16.65;;
36009;SDS011;22076;52.182;5.404;2024-01-30T06:10:25;26.95;;;14.75;;
36009;SDS011;22076;52.182;5.404;2024-01-30T06:12:52;31.20;;;15.98;;
36009;SDS011;22076;52.182;5.404;2024-01-30T06:15:18;30.30;;;16.70;;
36009;SDS011;22076;52.182;5.404;2024-01-30T06:17:45;28.27;;;14.85;;
36009;SDS011;22076;52.182;5.404;2024-01-30T06:20:12;32.60;;;16.00;;
36009;SDS011;22076;52.182;5.404;2024-01-30T06:22:40;28.35;;;15.10;;
36009;SDS011;22076;52.182;5.404;2024-01-30T06:25:07;29.52;;;16.45;;
36009;SDS011;22076;52.182;5.404;2024-01-30T06:27:34;36.65;;;18.27;;
36009;SDS011;22076;52.182;5.404;2024-01-30T06:30:00;33.88;;;16.80;;
36009;SDS011;22076;52.182;5.404;2024-01-30T06:32:27;33.67;;;17.73;;
36009;SDS011;22076;52.182;5.404;2024-01-30T06:34:53;33.55;;;18.10;;
36009;SDS011;22076;52.182;5.404;2024-01-30T06:37:20;30.27;;;15.93;;
36009;SDS011;22076;52.182;5.404;2024-01-30T06:39:49;30.27;;;17.23;;
36009;SDS011;22076;52.182;5.404;2024-01-30T06:42:18;30.65;;;15.60;;
36009;SDS011;22076;52.182;5.404;2024-01-30T06:44:44;34.60;;;16.92;;
36009;SDS011;22076;52.182;5.404;2024-01-30T06:47:11;31.00;;;15.55;;
36009;SDS011;22076;52.182;5.404;2024-01-30T06:49:37;31.35;;;16.48;;
36009;SDS011;22076;52.182;5.404;2024-01-30T06:52:04;37.25;;;17.75;;
36009;SDS011;22076;52.182;5.404;2024-01-30T06:54:31;28.05;;;15.68;;
36009;SDS011;22076;52.182;5.404;2024-01-30T06:56:59;34.03;;;16.65;;
36009;SDS011;22076;52.182;5.404;2024-01-30T06:59:25;31.70;;;15.98;;
36009;SDS011;22076;52.182;5.404;2024-01-30T07:01:52;32.45;;;16.77;;
36009;SDS011;22076;52.182;5.404;2024-01-30T07:04:19;32.53;;;15.35;;
36009;SDS011;22076;52.182;5.404;2024-01-30T07:06:45;29.58;;;15.70;;
36009;SDS011;22076;52.182;5.404;2024-01-30T07:09:12;40.08;;;18.40;;
36009;SDS011;22076;52.182;5.404;2024-01-30T07:11:38;38.08;;;18.38;;
36009;SDS011;22076;52.182;5.404;2024-01-30T07:14:07;29.58;;;16.15;;
36009;SDS011;22076;52.182;5.404;2024-01-30T07:16:35;30.25;;;16.75;;
36009;SDS011;22076;52.182;5.404;2024-01-30T07:19:02;35.10;;;17.63;;
36009;SDS011;22076;52.182;5.404;2024-01-30T07:21:29;32.08;;;18.20;;
36009;SDS011;22076;52.182;5.404;2024-01-30T07:23:55;33.40;;;17.05;;
36009;SDS011;22076;52.182;5.404;2024-01-30T07:26:22;26.38;;;14.77;;
36009;SDS011;22076;52.182;5.404;2024-01-30T07:28:49;31.95;;;16.02;;
36009;SDS011;22076;52.182;5.404;2024-01-30T07:31:17;37.60;;;17.05;;
36009;SDS011;22076;52.182;5.404;2024-01-30T07:33:45;39.97;;;16.75;;
36009;SDS011;22076;52.182;5.404;2024-01-30T07:36:12;40.22;;;17.38;;
36009;SDS011;22076;52.182;5.404;2024-01-30T07:38:39;34.55;;;16.58;;
36009;SDS011;22076;52.182;5.404;2024-01-30T07:41:06;41.03;;;20.52;;
36009;SDS011;22076;52.182;5.404;2024-01-30T07:43:33;34.10;;;17.50;;
36009;SDS011;22076;52.182;5.404;2024-01-30T07:46:01;33.65;;;16.10;;
36009;SDS011;22076;52.182;5.404;2024-01-30T07:48:29;30.30;;;15.90;;
36009;SDS011;22076;52.182;5.404;2024-01-30T07:50:56;34.53;;;17.33;;
36009;SDS011;22076;52.182;5.404;2024-01-30T07:53:23;37.25;;;17.38;;
36009;SDS011;22076;52.182;5.404;2024-01-30T07:55:49;33.83;;;17.92;;
36009;SDS011;22076;52.182;5.404;2024-01-30T07:58:17;35.13;;;17.92;;
36009;SDS011;22076;52.182;5.404;2024-01-30T08:00:44;30.17;;;15.38;;
36009;SDS011;22076;52.182;5.404;2024-01-30T08:03:14;28.15;;;14.75;;
36009;SDS011;22076;52.182;5.404;2024-01-30T08:05:45;30.02;;;15.57;;
36009;SDS011;22076;52.182;5.404;2024-01-30T08:08:11;24.42;;;14.02;;
36009;SDS011;22076;52.182;5.404;2024-01-30T08:10:38;31.55;;;15.05;;
36009;SDS011;22076;52.182;5.404;2024-01-30T08:13:04;26.48;;;14.68;;
36009;SDS011;22076;52.182;5.404;2024-01-30T08:15:31;35.72;;;15.43;;
36009;SDS011;22076;52.182;5.404;2024-01-30T08:17:58;32.25;;;16.30;;
36009;SDS011;22076;52.182;5.404;2024-01-30T08:20:24;36.50;;;16.77;;
36009;SDS011;22076;52.182;5.404;2024-01-30T08:22:52;37.17;;;18.05;;
36009;SDS011;22076;52.182;5.404;2024-01-30T08:25:19;28.48;;;16.58;;
36009;SDS011;22076;52.182;5.404;2024-01-30T08:27:46;39.78;;;17.65;;
36009;SDS011;22076;52.182;5.404;2024-01-30T08:30:13;32.53;;;14.63;;
36009;SDS011;22076;52.182;5.404;2024-01-30T08:32:41;31.17;;;15.25;;
36009;SDS011;22076;52.182;5.404;2024-01-30T08:35:07;32.05;;;15.77;;
36009;SDS011;22076;52.182;5.404;2024-01-30T08:37:34;30.73;;;15.80;;
36009;SDS011;22076;52.182;5.404;2024-01-30T08:40:03;33.38;;;14.85;;
36009;SDS011;22076;52.182;5.404;2024-01-30T08:42:30;44.00;;;19.92;;
36009;SDS011;22076;52.182;5.404;2024-01-30T08:44:58;38.58;;;18.63;;
36009;SDS011;22076;52.182;5.404;2024-01-30T08:47:25;41.67;;;19.48;;
36009;SDS011;22076;52.182;5.404;2024-01-30T08:49:52;38.53;;;16.25;;
36009;SDS011;22076;52.182;5.404;2024-01-30T08:52:18;42.88;;;18.30;;
36009;SDS011;22076;52.182;5.404;2024-01-30T08:54:45;30.80;;;16.30;;
36009;SDS011;22076;52.182;5.404;2024-01-30T08:57:13;32.80;;;14.82;;
36009;SDS011;22076;52.182;5.404;2024-01-30T08:59:40;35.83;;;16.95;;
36009;SDS011;22076;52.182;5.404;2024-01-30T09:02:09;52.22;;;19.98;;
36009;SDS011;22076;52.182;5.404;2024-01-30T09:04:38;46.83;;;19.35;;
36009;SDS011;22076;52.182;5.404;2024-01-30T09:07:04;34.70;;;14.65;;
36009;SDS011;22076;52.182;5.404;2024-01-30T09:09:34;27.17;;;13.98;;
36009;SDS011;22076;52.182;5.404;2024-01-30T09:12:00;39.45;;;18.17;;
36009;SDS011;22076;52.182;5.404;2024-01-30T09:14:33;42.00;;;18.80;;
36009;SDS011;22076;52.182;5.404;2024-01-30T09:17:01;34.75;;;17.45;;
36009;SDS011;22076;52.182;5.404;2024-01-30T09:19:28;32.75;;;15.00;;
36009;SDS011;22076;52.182;5.404;2024-01-30T09:21:55;42.67;;;18.35;;
36009;SDS011;22076;52.182;5.404;2024-01-30T09:24:22;38.15;;;15.90;;
36009;SDS011;22076;52.182;5.404;2024-01-30T09:26:49;27.27;;;13.98;;
36009;SDS011;22076;52.182;5.404;2024-01-30T09:29:15;31.30;;;13.82;;
36009;SDS011;22076;52.182;5.404;2024-01-30T09:31:44;26.60;;;14.10;;
36009;SDS011;22076;52.182;5.404;2024-01-30T09:34:11;31.27;;;15.23;;
36009;SDS011;22076;52.182;5.404;2024-01-30T09:36:45;32.25;;;15.40;;
36009;SDS011;22076;52.182;5.404;2024-01-30T09:39:12;33.97;;;14.55;;
36009;SDS011;22076;52.182;5.404;2024-01-30T09:41:45;35.25;;;16.33;;
36009;SDS011;22076;52.182;5.404;2024-01-30T09:44:15;35.72;;;16.25;;
36009;SDS011;22076;52.182;5.404;2024-01-30T09:46:43;35.20;;;15.43;;
36009;SDS011;22076;52.182;5.404;2024-01-30T09:49:13;29.58;;;15.55;;
36009;SDS011;22076;52.182;5.404;2024-01-30T09:51:40;42.17;;;17.02;;
36009;SDS011;22076;52.182;5.404;2024-01-30T09:54:07;39.50;;;17.35;;
36009;SDS011;22076;52.182;5.404;2024-01-30T09:56:35;38.90;;;17.75;;
36009;SDS011;22076;52.182;5.404;2024-01-30T09:59:02;37.45;;;15.45;;
36009;SDS011;22076;52.182;5.404;2024-01-30T10:01:29;40.83;;;16.55;;
36009;SDS011;22076;52.182;5.404;2024-01-30T10:03:58;25.92;;;13.65;;
36009;SDS011;22076;52.182;5.404;2024-01-30T10:06:25;35.08;;;15.88;;
36009;SDS011;22076;52.182;5.404;2024-01-30T10:08:52;31.92;;;16.52;;
36009;SDS011;22076;52.182;5.404;2024-01-30T10:11:19;30.25;;;14.20;;
36009;SDS011;22076;52.182;5.404;2024-01-30T10:13:47;30.83;;;14.32;;
36009;SDS011;22076;52.182;5.404;2024-01-30T10:16:13;28.67;;;14.50;;
36009;SDS011;22076;52.182;5.404;2024-01-30T10:18:41;38.13;;;16.50;;
36009;SDS011;22076;52.182;5.404;2024-01-30T10:21:10;28.25;;;14.23;;
36009;SDS011;22076;52.182;5.404;2024-01-30T10:23:36;28.75;;;12.88;;
36009;SDS011;22076;52.182;5.404;2024-01-30T10:26:04;23.08;;;11.65;;
36009;SDS011;22076;52.182;5.404;2024-01-30T10:28:31;28.75;;;13.50;;
36009;SDS011;22076;52.182;5.404;2024-01-30T10:30:58;27.45;;;13.25;;
36009;SDS011;22076;52.182;5.404;2024-01-30T10:33:25;27.88;;;14.15;;
36009;SDS011;22076;52.182;5.404;2024-01-30T10:35:54;30.75;;;13.93;;
36009;SDS011;22076;52.182;5.404;2024-01-30T10:38:25;24.38;;;13.27;;
36009;SDS011;22076;52.182;5.404;2024-01-30T10:40:55;25.88;;;13.35;;
36009;SDS011;22076;52.182;5.404;2024-01-30T10:43:23;26.70;;;12.95;;
36009;SDS011;22076;52.182;5.404;2024-01-30T10:45:54;24.13;;;12.85;;
36009;SDS011;22076;52.182;5.404;2024-01-30T10:48:25;30.02;;;14.20;;
36009;SDS011;22076;52.182;5.404;2024-01-30T10:50:56;28.33;;;12.88;;
36009;SDS011;22076;52.182;5.404;2024-01-30T10:53:28;21.05;;;11.75;;
36009;SDS011;22076;52.182;5.404;2024-01-30T10:55:57;22.58;;;11.13;;
36009;SDS011;22076;52.182;5.404;2024-01-30T10:58:25;24.23;;;13.35;;
36009;SDS011;22076;52.182;5.404;2024-01-30T11:00:53;24.05;;;13.65;;
36009;SDS011;22076;52.182;5.404;2024-01-30T11:03:20;31.65;;;12.75;;
36009;SDS011;22076;52.182;5.404;2024-01-30T11:05:48;25.90;;;11.70;;
36009;SDS011;22076;52.182;5.404;2024-01-30T11:08:22;23.60;;;11.73;;
36009;SDS011;22076;52.182;5.404;2024-01-30T11:10:54;20.70;;;10.57;;
36009;SDS011;22076;52.182;5.404;2024-01-30T11:13:22;22.50;;;11.40;;
36009;SDS011;22076;52.182;5.404;2024-01-30T11:15:52;18.92;;;10.93;;
36009;SDS011;22076;52.182;5.404;2024-01-30T11:18:22;14.45;;;9.13;;
36009;SDS011;22076;52.182;5.404;2024-01-30T11:20:49;20.48;;;10.38;;
36009;SDS011;22076;52.182;5.404;2024-01-30T11:23:16;21.85;;;9.10;;
36009;SDS011;22076;52.182;5.404;2024-01-30T11:25:43;16.80;;;7.15;;
36009;SDS011;22076;52.182;5.404;2024-01-30T11:28:14;16.02;;;8.45;;
36009;SDS011;22076;52.182;5.404;2024-01-30T11:30:41;17.48;;;8.15;;
36009;SDS011;22076;52.182;5.404;2024-01-30T11:33:09;14.32;;;6.85;;
36009;SDS011;22076;52.182;5.404;2024-01-30T11:35:37;15.27;;;7.95;;
36009;SDS011;22076;52.182;5.404;2024-01-30T11:38:06;14.30;;;7.22;;
36009;SDS011;22076;52.182;5.404;2024-01-30T11:40:34;11.60;;;6.32;;
36009;SDS011;22076;52.182;5.404;2024-01-30T11:43:03;11.95;;;7.10;;
36009;SDS011;22076;52.182;5.404;2024-01-30T11:45:32;12.95;;;7.03;;
36009;SDS011;22076;52.182;5.404;2024-01-30T11:47:59;12.35;;;6.18;;
36009;SDS011;22076;52.182;5.404;2024-01-30T11:50:28;11.48;;;5.40;;
36009;SDS011;22076;52.182;5.404;2024-01-30T11:52:55;12.07;;;5.47;;
36009;SDS011;22076;52.182;5.404;2024-01-30T11:55:23;8.75;;;3.88;;
36009;SDS011;22076;52.182;5.404;2024-01-30T11:57:50;8.00;;;4.05;;
36009;SDS011;22076;52.182;5.404;2024-01-30T12:00:17;7.28;;;3.80;;
36009;SDS011;22076;52.182;5.404;2024-01-30T12:02:49;9.00;;;3.45;;
36009;SDS011;22076;52.182;5.404;2024-01-30T12:05:20;9.65;;;3.47;;
36009;SDS011;22076;52.182;5.404;2024-01-30T12:07:48;7.35;;;3.47;;
36009;SDS011;22076;52.182;5.404;2024-01-30T12:10:14;9.30;;;3.60;;
36009;SDS011;22076;52.182;5.404;2024-01-30T12:12:42;12.18;;;3.95;;
36009;SDS011;22076;52.182;5.404;2024-01-30T12:15:11;13.38;;;3.97;;
36009;SDS011;22076;52.182;5.404;2024-01-30T12:17:39;7.80;;;3.78;;
36009;SDS011;22076;52.182;5.404;2024-01-30T12:20:08;8.20;;;4.40;;
36009;SDS011;22076;52.182;5.404;2024-01-30T12:22:36;10.20;;;4.22;;
36009;SDS011;22076;52.182;5.404;2024-01-30T12:25:04;7.82;;;4.38;;
36009;SDS011;22076;52.182;5.404;2024-01-30T12:27:33;7.18;;;3.58;;
36009;SDS011;22076;52.182;5.404;2024-01-30T12:30:00;9.80;;;3.40;;
36009;SDS011;22076;52.182;5.404;2024-01-30T12:32:27;16.50;;;4.57;;
36009;SDS011;22076;52.182;5.404;2024-01-30T12:34:54;6.28;;;3.40;;
36009;SDS011;22076;52.182;5.404;2024-01-30T12:37:24;12.27;;;3.40;;
36009;SDS011;22076;52.182;5.404;2024-01-30T12:39:51;6.60;;;3.63;;
36009;SDS011;22076;52.182;5.404;2024-01-30T12:42:19;7.50;;;3.58;;
36009;SDS011;22076;52.182;5.404;2024-01-30T12:44:46;9.85;;;3.45;;
36009;SDS011;22076;52.182;5.404;2024-01-30T12:47:13;8.52;;;3.58;;
36009;SDS011;22076;52.182;5.404;2024-01-30T12:49:41;9.15;;;3.17;;
36009;SDS011;22076;52.182;5.404;2024-01-30T12:52:08;9.07;;;3.50;;
36009;SDS011;22076;52.182;5.404;2024-01-30T12:54:36;9.32;;;3.65;;
36009;SDS011;22076;52.182;5.404;2024-01-30T12:57:03;8.10;;;3.22;;
36009;SDS011;22076;52.182;5.404;2024-01-30T12:59:30;6.85;;;3.53;;
36009;SDS011;22076;52.182;5.404;2024-01-30T13:01:58;6.57;;;3.30;;
36009;SDS011;22076;52.182;5.404;2024-01-30T13:04:27;9.65;;;3.35;;
36009;SDS011;22076;52.182;5.404;2024-01-30T13:06:56;14.23;;;4.43;;
36009;SDS011;22076;52.182;5.404;2024-01-30T13:09:23;5.82;;;3.40;;
36009;SDS011;22076;52.182;5.404;2024-01-30T13:11:52;7.03;;;3.60;;
36009;SDS011;22076;52.182;5.404;2024-01-30T13:14:19;7.45;;;3.35;;
36009;SDS011;22076;52.182;5.404;2024-01-30T13:16:45;6.32;;;2.58;;
36009;SDS011;22076;52.182;5.404;2024-01-30T13:19:14;5.95;;;3.08;;
36009;SDS011;22076;52.182;5.404;2024-01-30T13:21:41;6.22;;;2.30;;
36009;SDS011;22076;52.182;5.404;2024-01-30T13:24:08;4.30;;;2.13;;
36009;SDS011;22076;52.182;5.404;2024-01-30T13:26:35;4.65;;;2.53;;
36009;SDS011;22076;52.182;5.404;2024-01-30T13:29:03;3.72;;;2.25;;
36009;SDS011;22076;52.182;5.404;2024-01-30T13:31:30;6.60;;;2.03;;
36009;SDS011;22076;52.182;5.404;2024-01-30T13:33:57;3.90;;;1.98;;
36009;SDS011;22076;52.182;5.404;2024-01-30T13:36:24;6.30;;;2.00;;
36009;SDS011;22076;52.182;5.404;2024-01-30T13:38:52;6.88;;;2.08;;
36009;SDS011;22076;52.182;5.404;2024-01-30T13:41:19;5.95;;;1.65;;
36009;SDS011;22076;52.182;5.404;2024-01-30T13:43:49;6.35;;;1.98;;
36009;SDS011;22076;52.182;5.404;2024-01-30T13:46:17;3.20;;;1.90;;
36009;SDS011;22076;52.182;5.404;2024-01-30T13:48:44;5.43;;;2.30;;
36009;SDS011;22076;52.182;5.404;2024-01-30T13:51:12;3.28;;;2.60;;
36009;SDS011;22076;52.182;5.404;2024-01-30T13:53:38;7.32;;;2.58;;
36009;SDS011;22076;52.182;5.404;2024-01-30T13:56:05;5.68;;;2.17;;
36009;SDS011;22076;52.182;5.404;2024-01-30T13:58:33;7.55;;;1.80;;
36009;SDS011;22076;52.182;5.404;2024-01-30T14:01:01;7.20;;;3.22;;
36009;SDS011;22076;52.182;5.404;2024-01-30T14:03:30;6.13;;;3.75;;
36009;SDS011;22076;52.182;5.404;2024-01-30T14:05:57;8.00;;;2.65;;
36009;SDS011;22076;52.182;5.404;2024-01-30T14:08:24;5.90;;;2.40;;
36009;SDS011;22076;52.182;5.404;2024-01-30T14:10:53;12.95;;;2.95;;
36009;SDS011;22076;52.182;5.404;2024-01-30T14:13:19;6.68;;;3.00;;
36009;SDS011;22076;52.182;5.404;2024-01-30T14:15:46;7.22;;;2.97;;
36009;SDS011;22076;52.182;5.404;2024-01-30T14:18:14;8.52;;;3.42;;
36009;SDS011;22076;52.182;5.404;2024-01-30T14:20:42;6.82;;;3.00;;
36009;SDS011;22076;52.182;5.404;2024-01-30T14:23:09;8.50;;;3.95;;
36009;SDS011;22076;52.182;5.404;2024-01-30T14:25:35;9.57;;;3.70;;